sensor_id;sensor_type;location;lat;lon;timestamp;pressure;altitude;pressure_sealevel;temperature;humidity
12991;BME280;6560;57.692;11.958;2023-04-08T00:02:15;102615.88;;;15.99;61.55
12991;BME280;6560;57.692;11.958;2023-04-08T00:04:41;102609.72;;;15.37;63.43
12991;BME280;6560;57.692;11.958;2023-04-08T00:07:06;102616.50;;;16.06;61.66
12991;BME280;6560;57.692;11.958;2023-04-08T00:09:32;102582.19;;;15.37;62.81
12991;BME280;6560;57.692;11.958;2023-04-08T00:12:18;102610.25;;;15.33;63.25
12991;BME280;6560;57.692;11.958;2023-04-08T00:14:45;102606.91;;;15.66;63.42
12991;BME280;6560;57.692;11.958;2023-04-08T00:17:10;102621.81;;;15.64;64.38
12991;BME280;6560;57.692;11.958;2023-04-08T00:19:36;102600.41;;;15.63;63.63
12991;BME280;6560;57.692;11.958;2023-04-08T00:22:01;102598.16;;;15.57;64.65
12991;BME280;6560;57.692;11.958;2023-04-08T00:24:27;102519.75;;;15.32;64.10
12991;BME280;6560;57.692;11.958;2023-04-08T00:26:53;102583.16;;;15.89;64.70
12991;BME280;6560;57.692;11.958;2023-04-08T00:29:19;102533.59;;;15.28;65.38
12991;BME280;6560;57.692;11.958;2023-04-08T00:31:45;102535.22;;;15.05;65.32
12991;BME280;6560;57.692;11.958;2023-04-08T00:34:10;102571.88;;;14.99;66.19
12991;BME280;6560;57.692;11.958;2023-04-08T00:36:36;102586.91;;;15.09;66.22
12991;BME280;6560;57.692;11.958;2023-04-08T00:39:02;102592.25;;;14.40;68.07
12991;BME280;6560;57.692;11.958;2023-04-08T00:41:29;102525.50;;;14.45;67.80
12991;BME280;6560;57.692;11.958;2023-04-08T00:43:55;102582.34;;;15.38;66.53
12991;BME280;6560;57.692;11.958;2023-04-08T00:46:20;102568.03;;;15.06;66.08
12991;BME280;6560;57.692;11.958;2023-04-08T00:48:46;102591.78;;;15.25;66.33
12991;BME280;6560;57.692;11.958;2023-04-08T00:51:11;102463.47;;;14.24;66.92
12991;BME280;6560;57.692;11.958;2023-04-08T00:53:38;102596.19;;;15.34;66.63
12991;BME280;6560;57.692;11.958;2023-04-08T00:56:04;102499.66;;;14.43;67.29
12991;BME280;6560;57.692;11.958;2023-04-08T00:58:30;102580.63;;;14.68;67.48
12991;BME280;6560;57.692;11.958;2023-04-08T01:01:21;102589.81;;;15.22;66.05
12991;BME280;6560;57.692;11.958;2023-04-08T01:09:18;102599.88;;;15.46;67.10
12991;BME280;6560;57.692;11.958;2023-04-08T01:11:49;102584.25;;;15.09;67.31
12991;BME280;6560;57.692;11.958;2023-04-08T01:14:19;102594.06;;;14.80;67.33
12991;BME280;6560;57.692;11.958;2023-04-08T01:16:47;102594.97;;;15.61;64.98
12991;BME280;6560;57.692;11.958;2023-04-08T01:19:32;102601.63;;;15.05;67.30
12991;BME280;6560;57.692;11.958;2023-04-08T01:25:09;102608.41;;;15.12;67.43
12991;BME280;6560;57.692;11.958;2023-04-08T01:27:37;102603.47;;;15.67;66.34
12991;BME280;6560;57.692;11.958;2023-04-08T01:30:06;102601.88;;;15.49;66.18
12991;BME280;6560;57.692;11.958;2023-04-08T01:32:34;102607.44;;;15.62;65.49
12991;BME280;6560;57.692;11.958;2023-04-08T01:35:02;102617.44;;;15.04;67.61
12991;BME280;6560;57.692;11.958;2023-04-08T01:37:30;102628.22;;;14.95;67.18
12991;BME280;6560;57.692;11.958;2023-04-08T01:39:57;102610.38;;;15.45;66.91
12991;BME280;6560;57.692;11.958;2023-04-08T01:42:24;102476.28;;;14.79;66.53
12991;BME280;6560;57.692;11.958;2023-04-08T01:44:54;102610.75;;;15.49;66.78
12991;BME280;6560;57.692;11.958;2023-04-08T01:47:22;102613.81;;;15.74;66.61
12991;BME280;6560;57.692;11.958;2023-04-08T01:49:50;102613.22;;;15.16;67.40
12991;BME280;6560;57.692;11.958;2023-04-08T01:52:17;102620.50;;;15.08;67.82
12991;BME280;6560;57.692;11.958;2023-04-08T01:54:44;102612.66;;;15.20;68.89
12991;BME280;6560;57.692;11.958;2023-04-08T01:57:13;102572.41;;;14.75;68.90
12991;BME280;6560;57.692;11.958;2023-04-08T01:59:42;102610.94;;;15.21;68.28
12991;BME280;6560;57.692;11.958;2023-04-08T02:02:11;102583.66;;;15.64;66.68
12991;BME280;6560;57.692;11.958;2023-04-08T02:04:37;102592.59;;;15.03;68.67
12991;BME280;6560;57.692;11.958;2023-04-08T02:07:03;102584.94;;;15.79;67.97
12991;BME280;6560;57.692;11.958;2023-04-08T02:09:28;102483.97;;;14.96;67.40
12991;BME280;6560;57.692;11.958;2023-04-08T02:11:54;102629.22;;;15.78;67.69
12991;BME280;6560;57.692;11.958;2023-04-08T02:14:21;102601.34;;;16.05;66.74
12991;BME280;6560;57.692;11.958;2023-04-08T02:16:55;102606.66;;;16.05;66.32
12991;BME280;6560;57.692;11.958;2023-04-08T02:19:29;102547.81;;;15.18;67.33
12991;BME280;6560;57.692;11.958;2023-04-08T02:22:05;102616.53;;;15.96;67.22
12991;BME280;6560;57.692;11.958;2023-04-08T02:24:34;102638.91;;;15.88;66.94
12991;BME280;6560;57.692;11.958;2023-04-08T02:27:02;102630.66;;;15.85;67.41
12991;BME280;6560;57.692;11.958;2023-04-08T02:29:30;102640.09;;;15.91;67.52
12991;BME280;6560;57.692;11.958;2023-04-08T02:31:57;102641.59;;;15.88;67.70
12991;BME280;6560;57.692;11.958;2023-04-08T02:34:24;102650.81;;;15.21;69.06
12991;BME280;6560;57.692;11.958;2023-04-08T02:36:50;102643.78;;;15.62;68.05
12991;BME280;6560;57.692;11.958;2023-04-08T02:39:16;102514.59;;;15.23;67.40
12991;BME280;6560;57.692;11.958;2023-04-08T02:41:42;102624.41;;;15.94;67.26
12991;BME280;6560;57.692;11.958;2023-04-08T02:44:08;102651.56;;;15.70;67.38
12991;BME280;6560;57.692;11.958;2023-04-08T02:46:35;102652.03;;;15.54;68.58
12991;BME280;6560;57.692;11.958;2023-04-08T02:49:01;102658.66;;;15.29;68.51
12991;BME280;6560;57.692;11.958;2023-04-08T02:51:26;102640.88;;;16.32;66.84
12991;BME280;6560;57.692;11.958;2023-04-08T02:53:52;102655.91;;;16.00;67.38
12991;BME280;6560;57.692;11.958;2023-04-08T02:56:19;102623.94;;;15.48;68.09
12991;BME280;6560;57.692;11.958;2023-04-08T02:58:45;102634.91;;;15.83;67.56
12991;BME280;6560;57.692;11.958;2023-04-08T03:01:11;102623.03;;;16.00;67.25
12991;BME280;6560;57.692;11.958;2023-04-08T03:03:36;102665.81;;;15.71;68.78
12991;BME280;6560;57.692;11.958;2023-04-08T03:06:03;102650.78;;;16.45;66.65
12991;BME280;6560;57.692;11.958;2023-04-08T03:08:28;102647.53;;;16.59;65.79
12991;BME280;6560;57.692;11.958;2023-04-08T03:10:54;102682.56;;;16.64;66.19
12991;BME280;6560;57.692;11.958;2023-04-08T03:13:19;102496.78;;;15.74;65.63
12991;BME280;6560;57.692;11.958;2023-04-08T03:15:45;102559.19;;;16.00;65.96
12991;BME280;6560;57.692;11.958;2023-04-08T03:18:12;102591.09;;;15.68;66.80
12991;BME280;6560;57.692;11.958;2023-04-08T03:20:39;102673.59;;;15.89;67.17
12991;BME280;6560;57.692;11.958;2023-04-08T03:23:06;102468.19;;;14.88;68.19
12991;BME280;6560;57.692;11.958;2023-04-08T03:25:31;102612.91;;;16.06;67.08
12991;BME280;6560;57.692;11.958;2023-04-08T03:30:33;102672.53;;;15.98;68.14
12991;BME280;6560;57.692;11.958;2023-04-08T03:32:59;102665.19;;;16.05;68.49
12991;BME280;6560;57.692;11.958;2023-04-08T03:35:24;102596.41;;;15.68;68.97
12991;BME280;6560;57.692;11.958;2023-04-08T03:37:50;102623.28;;;16.03;68.07
12991;BME280;6560;57.692;11.958;2023-04-08T03:40:15;102678.28;;;15.92;70.02
12991;BME280;6560;57.692;11.958;2023-04-08T03:42:41;102603.09;;;15.32;69.53
12991;BME280;6560;57.692;11.958;2023-04-08T03:45:07;102673.19;;;15.95;70.20
12991;BME280;6560;57.692;11.958;2023-04-08T03:47:33;102665.19;;;16.05;69.78
12991;BME280;6560;57.692;11.958;2023-04-08T03:49:58;102679.56;;;16.07;69.54
12991;BME280;6560;57.692;11.958;2023-04-08T03:52:23;102685.56;;;16.05;69.85
12991;BME280;6560;57.692;11.958;2023-04-08T03:54:49;102684.47;;;16.13;70.25
12991;BME280;6560;57.692;11.958;2023-04-08T03:57:14;102622.59;;;15.43;70.79
12991;BME280;6560;57.692;11.958;2023-04-08T03:59:40;102613.31;;;15.48;71.00
12991;BME280;6560;57.692;11.958;2023-04-08T04:02:05;102650.19;;;15.95;71.36
12991;BME280;6560;57.692;11.958;2023-04-08T04:04:31;102706.09;;;15.85;71.08
12991;BME280;6560;57.692;11.958;2023-04-08T04:06:57;102671.94;;;15.60;72.24
12991;BME280;6560;57.692;11.958;2023-04-08T04:09:22;102626.63;;;15.28;73.34
12991;BME280;6560;57.692;11.958;2023-04-08T04:11:48;102701.69;;;15.25;74.50
12991;BME280;6560;57.692;11.958;2023-04-08T04:14:13;102674.84;;;15.12;74.80
12991;BME280;6560;57.692;11.958;2023-04-08T04:16:39;102686.28;;;15.41;74.78
12991;BME280;6560;57.692;11.958;2023-04-08T04:19:04;102677.19;;;14.21;77.97
12991;BME280;6560;57.692;11.958;2023-04-08T04:21:30;102600.34;;;14.41;77.14
12991;BME280;6560;57.692;11.958;2023-04-08T04:23:56;102713.78;;;15.22;78.72
12991;BME280;6560;57.692;11.958;2023-04-08T04:26:21;102665.44;;;15.36;77.11
12991;BME280;6560;57.692;11.958;2023-04-08T04:28:47;102698.91;;;15.44;76.70
12991;BME280;6560;57.692;11.958;2023-04-08T04:31:22;102620.63;;;14.90;77.01
12991;BME280;6560;57.692;11.958;2023-04-08T04:33:48;102706.09;;;15.45;76.41
12991;BME280;6560;57.692;11.958;2023-04-08T04:36:14;102695.53;;;16.07;75.61
12991;BME280;6560;57.692;11.958;2023-04-08T04:38:40;102698.94;;;15.74;76.11
12991;BME280;6560;57.692;11.958;2023-04-08T04:41:07;102594.97;;;14.60;77.11
12991;BME280;6560;57.692;11.958;2023-04-08T04:43:32;102701.44;;;15.83;76.08
12991;BME280;6560;57.692;11.958;2023-04-08T04:45:58;102690.66;;;15.91;76.08
12991;BME280;6560;57.692;11.958;2023-04-08T04:48:24;102703.16;;;15.62;76.60
12991;BME280;6560;57.692;11.958;2023-04-08T04:50:56;102703.44;;;15.85;75.74
12991;BME280;6560;57.692;11.958;2023-04-08T04:53:22;102604.03;;;15.02;76.53
12991;BME280;6560;57.692;11.958;2023-04-08T04:55:49;102682.28;;;14.96;76.85
12991;BME280;6560;57.692;11.958;2023-04-08T04:58:15;102622.47;;;14.81;78.01
12991;BME280;6560;57.692;11.958;2023-04-08T05:00:40;102668.84;;;15.45;77.46
12991;BME280;6560;57.692;11.958;2023-04-08T05:03:06;102714.59;;;15.91;76.86
12991;BME280;6560;57.692;11.958;2023-04-08T05:05:31;102713.28;;;15.66;77.16
12991;BME280;6560;57.692;11.958;2023-04-08T05:07:58;102711.97;;;15.81;76.76
12991;BME280;6560;57.692;11.958;2023-04-08T05:10:24;102613.44;;;14.29;79.09
12991;BME280;6560;57.692;11.958;2023-04-08T05:12:49;102728.41;;;15.27;78.16
12991;BME280;6560;57.692;11.958;2023-04-08T05:15:15;102679.34;;;15.23;78.48
12991;BME280;6560;57.692;11.958;2023-04-08T05:17:40;102705.94;;;15.13;80.88
12991;BME280;6560;57.692;11.958;2023-04-08T05:20:06;102721.50;;;15.39;80.39
12991;BME280;6560;57.692;11.958;2023-04-08T05:22:32;102726.84;;;15.69;79.14
12991;BME280;6560;57.692;11.958;2023-04-08T05:24:58;102726.16;;;15.82;79.33
12991;BME280;6560;57.692;11.958;2023-04-08T05:27:24;102695.31;;;15.43;80.48
12991;BME280;6560;57.692;11.958;2023-04-08T05:29:49;102706.00;;;15.53;79.66
12991;BME280;6560;57.692;11.958;2023-04-08T05:32:16;102706.53;;;15.60;80.20
12991;BME280;6560;57.692;11.958;2023-04-08T05:34:43;102716.34;;;15.81;80.83
12991;BME280;6560;57.692;11.958;2023-04-08T05:37:09;102725.63;;;15.35;82.28
12991;BME280;6560;57.692;11.958;2023-04-08T05:39:35;102672.56;;;15.77;80.39
12991;BME280;6560;57.692;11.958;2023-04-08T05:42:01;102737.88;;;16.36;80.10
12991;BME280;6560;57.692;11.958;2023-04-08T05:44:26;102728.59;;;15.59;82.28
12991;BME280;6560;57.692;11.958;2023-04-08T05:46:52;102705.00;;;15.43;81.34
12991;BME280;6560;57.692;11.958;2023-04-08T05:49:18;102699.47;;;16.22;79.88
12991;BME280;6560;57.692;11.958;2023-04-08T05:51:43;102710.59;;;15.46;82.68
12991;BME280;6560;57.692;11.958;2023-04-08T05:54:09;102726.19;;;15.72;83.66
12991;BME280;6560;57.692;11.958;2023-04-08T05:56:34;102731.91;;;16.39;82.34
12991;BME280;6560;57.692;11.958;2023-04-08T05:59:00;102720.06;;;15.63;82.90
12991;BME280;6560;57.692;11.958;2023-04-08T06:01:26;102745.97;;;16.06;83.73
12991;BME280;6560;57.692;11.958;2023-04-08T06:03:51;102717.13;;;15.39;84.23
12991;BME280;6560;57.692;11.958;2023-04-08T06:06:17;102728.69;;;15.90;84.31
12991;BME280;6560;57.692;11.958;2023-04-08T06:08:42;102732.63;;;16.16;82.29
12991;BME280;6560;57.692;11.958;2023-04-08T06:11:08;102747.56;;;15.83;85.75
12991;BME280;6560;57.692;11.958;2023-04-08T06:13:33;102752.91;;;15.63;86.27
12991;BME280;6560;57.692;11.958;2023-04-08T06:16:09;102749.44;;;15.64;86.53
12991;BME280;6560;57.692;11.958;2023-04-08T06:18:35;102717.00;;;15.58;87.29
12991;BME280;6560;57.692;11.958;2023-04-08T06:21:01;102752.22;;;15.96;86.71
12991;BME280;6560;57.692;11.958;2023-04-08T06:23:27;102733.63;;;15.76;87.08
12991;BME280;6560;57.692;11.958;2023-04-08T06:25:52;102732.56;;;15.94;86.13
12991;BME280;6560;57.692;11.958;2023-04-08T06:28:18;102648.97;;;16.02;84.22
12991;BME280;6560;57.692;11.958;2023-04-08T06:30:43;102630.47;;;16.04;84.30
12991;BME280;6560;57.692;11.958;2023-04-08T06:33:09;102762.59;;;16.65;84.64
12991;BME280;6560;57.692;11.958;2023-04-08T06:35:35;102678.28;;;15.92;84.15
12991;BME280;6560;57.692;11.958;2023-04-08T06:38:02;102726.53;;;16.07;85.99
12991;BME280;6560;57.692;11.958;2023-04-08T06:40:27;102738.22;;;16.19;85.89
12991;BME280;6560;57.692;11.958;2023-04-08T06:42:53;102711.88;;;16.54;83.77
12991;BME280;6560;57.692;11.958;2023-04-08T06:45:18;102755.38;;;16.54;83.94
12991;BME280;6560;57.692;11.958;2023-04-08T06:47:44;102754.38;;;16.42;83.42
12991;BME280;6560;57.692;11.958;2023-04-08T06:50:10;102701.56;;;15.84;83.81
12991;BME280;6560;57.692;11.958;2023-04-08T06:52:35;102780.56;;;15.75;85.46
12991;BME280;6560;57.692;11.958;2023-04-08T06:55:01;102756.44;;;16.24;85.04
12991;BME280;6560;57.692;11.958;2023-04-08T06:57:26;102742.31;;;16.67;83.07
12991;BME280;6560;57.692;11.958;2023-04-08T06:59:51;102780.56;;;16.48;83.12
12991;BME280;6560;57.692;11.958;2023-04-08T07:02:18;102775.91;;;16.13;84.67
12991;BME280;6560;57.692;11.958;2023-04-08T07:04:44;102693.13;;;16.42;82.73
12991;BME280;6560;57.692;11.958;2023-04-08T07:07:10;102755.38;;;16.54;82.52
12991;BME280;6560;57.692;11.958;2023-04-08T07:09:41;102779.00;;;16.60;82.58
12991;BME280;6560;57.692;11.958;2023-04-08T07:12:10;102695.81;;;16.00;82.27
12991;BME280;6560;57.692;11.958;2023-04-08T07:14:35;102785.50;;;15.81;83.73
12991;BME280;6560;57.692;11.958;2023-04-08T07:17:01;102744.75;;;15.51;85.30
12991;BME280;6560;57.692;11.958;2023-04-08T07:19:27;102753.66;;;16.03;84.27
12991;BME280;6560;57.692;11.958;2023-04-08T07:21:52;102766.19;;;16.56;83.09
12991;BME280;6560;57.692;11.958;2023-04-08T07:24:18;102698.66;;;16.55;80.58
12991;BME280;6560;57.692;11.958;2023-04-08T07:26:44;102743.22;;;16.36;82.41
12991;BME280;6560;57.692;11.958;2023-04-08T07:29:09;102765.56;;;17.12;79.33
12991;BME280;6560;57.692;11.958;2023-04-08T07:31:35;102771.22;;;16.95;80.60
12991;BME280;6560;57.692;11.958;2023-04-08T07:34:00;102758.06;;;16.64;80.41
12991;BME280;6560;57.692;11.958;2023-04-08T07:36:26;102754.41;;;17.06;80.23
12991;BME280;6560;57.692;11.958;2023-04-08T07:38:52;102779.03;;;17.69;78.85
12991;BME280;6560;57.692;11.958;2023-04-08T07:41:19;102780.53;;;17.43;78.41
12991;BME280;6560;57.692;11.958;2023-04-08T07:43:45;102779.38;;;17.18;79.41
12991;BME280;6560;57.692;11.958;2023-04-08T07:46:10;102741.25;;;17.19;79.28
12991;BME280;6560;57.692;11.958;2023-04-08T07:48:36;102730.03;;;16.80;78.66
12991;BME280;6560;57.692;11.958;2023-04-08T07:51:06;102787.75;;;17.44;78.56
12991;BME280;6560;57.692;11.958;2023-04-08T07:53:32;102698.03;;;17.23;77.30
12991;BME280;6560;57.692;11.958;2023-04-08T07:55:58;102794.06;;;17.78;76.89
12991;BME280;6560;57.692;11.958;2023-04-08T07:58:24;102746.41;;;18.06;77.11
12991;BME280;6560;57.692;11.958;2023-04-08T08:00:50;102767.66;;;18.86;74.16
12991;BME280;6560;57.692;11.958;2023-04-08T08:03:22;102774.41;;;18.46;72.66
12991;BME280;6560;57.692;11.958;2023-04-08T08:05:48;102739.94;;;18.61;73.80
12991;BME280;6560;57.692;11.958;2023-04-08T08:08:13;102755.91;;;18.84;72.64
12991;BME280;6560;57.692;11.958;2023-04-08T08:10:39;102760.56;;;19.35;72.79
12991;BME280;6560;57.692;11.958;2023-04-08T08:13:06;102784.44;;;19.20;71.10
12991;BME280;6560;57.692;11.958;2023-04-08T08:15:32;102677.78;;;17.70;71.89
12991;BME280;6560;57.692;11.958;2023-04-08T08:17:58;102788.91;;;19.08;72.99
12991;BME280;6560;57.692;11.958;2023-04-08T08:20:24;102783.06;;;19.50;71.28
12991;BME280;6560;57.692;11.958;2023-04-08T08:22:50;102647.84;;;18.21;70.37
12991;BME280;6560;57.692;11.958;2023-04-08T08:25:16;102753.84;;;19.28;72.49
12991;BME280;6560;57.692;11.958;2023-04-08T08:27:42;102792.50;;;20.33;69.44
12991;BME280;6560;57.692;11.958;2023-04-08T08:30:08;102799.16;;;20.13;67.45
12991;BME280;6560;57.692;11.958;2023-04-08T08:32:34;102769.22;;;20.45;67.89
12991;BME280;6560;57.692;11.958;2023-04-08T08:35:00;102751.03;;;20.01;69.74
12991;BME280;6560;57.692;11.958;2023-04-08T08:37:26;102807.56;;;19.68;67.73
12991;BME280;6560;57.692;11.958;2023-04-08T08:39:51;102753.81;;;18.92;69.99
12991;BME280;6560;57.692;11.958;2023-04-08T08:42:21;102737.00;;;19.18;70.85
12991;BME280;6560;57.692;11.958;2023-04-08T08:44:47;102781.97;;;18.75;69.59
12991;BME280;6560;57.692;11.958;2023-04-08T08:47:13;102711.00;;;18.67;69.21
12991;BME280;6560;57.692;11.958;2023-04-08T08:49:39;102811.00;;;19.42;70.14
12991;BME280;6560;57.692;11.958;2023-04-08T08:52:04;102737.59;;;18.30;71.36
12991;BME280;6560;57.692;11.958;2023-04-08T08:54:31;102818.94;;;18.01;73.40
12991;BME280;6560;57.692;11.958;2023-04-08T08:56:56;102802.13;;;18.25;74.16
12991;BME280;6560;57.692;11.958;2023-04-08T08:59:22;102761.16;;;17.68;74.51
12991;BME280;6560;57.692;11.958;2023-04-08T09:01:47;102808.19;;;18.46;74.25
12991;BME280;6560;57.692;11.958;2023-04-08T09:04:15;102788.47;;;18.79;72.28
12991;BME280;6560;57.692;11.958;2023-04-08T09:06:43;102805.91;;;18.85;72.09
12991;BME280;6560;57.692;11.958;2023-04-08T09:09:08;102815.31;;;18.80;72.75
12991;BME280;6560;57.692;11.958;2023-04-08T09:11:35;102816.59;;;18.50;72.61
12991;BME280;6560;57.692;11.958;2023-04-08T09:14:01;102744.09;;;18.34;72.63
12991;BME280;6560;57.692;11.958;2023-04-08T09:16:29;102694.41;;;18.13;72.79
12991;BME280;6560;57.692;11.958;2023-04-08T09:19:07;102804.81;;;19.43;71.05
12991;BME280;6560;57.692;11.958;2023-04-08T09:21:33;102774.28;;;19.64;70.09
12991;BME280;6560;57.692;11.958;2023-04-08T09:23:59;102790.38;;;19.77;69.18
12991;BME280;6560;57.692;11.958;2023-04-08T09:26:25;102720.81;;;19.90;68.02
12991;BME280;6560;57.692;11.958;2023-04-08T09:31:30;102724.53;;;19.55;68.91
12991;BME280;6560;57.692;11.958;2023-04-08T09:33:58;102798.41;;;20.80;66.58
12991;BME280;6560;57.692;11.958;2023-04-08T09:36:24;102803.53;;;19.61;68.27
12991;BME280;6560;57.692;11.958;2023-04-08T09:38:53;102722.66;;;19.29;67.96
12991;BME280;6560;57.692;11.958;2023-04-08T09:41:20;102699.28;;;19.26;68.14
12991;BME280;6560;57.692;11.958;2023-04-08T09:43:53;102736.13;;;19.80;67.75
12991;BME280;6560;57.692;11.958;2023-04-08T09:52:03;102792.59;;;19.96;68.27
12991;BME280;6560;57.692;11.958;2023-04-08T09:57:09;102795.00;;;20.05;68.59
12991;BME280;6560;57.692;11.958;2023-04-08T09:59:36;102745.31;;;19.97;68.71
12991;BME280;6560;57.692;11.958;2023-04-08T10:02:08;102712.84;;;19.66;68.79
12991;BME280;6560;57.692;11.958;2023-04-08T10:04:38;102788.63;;;20.16;67.62
12991;BME280;6560;57.692;11.958;2023-04-08T10:07:06;102739.66;;;19.54;69.00
12991;BME280;6560;57.692;11.958;2023-04-08T10:09:33;102797.09;;;20.22;68.95
12991;BME280;6560;57.692;11.958;2023-04-08T10:12:00;102749.69;;;19.95;68.55
12991;BME280;6560;57.692;11.958;2023-04-08T10:14:26;102723.53;;;20.30;68.06
12991;BME280;6560;57.692;11.958;2023-04-08T10:17:26;102789.09;;;19.59;68.50
12991;BME280;6560;57.692;11.958;2023-04-08T10:19:53;102753.31;;;18.97;70.88
12991;BME280;6560;57.692;11.958;2023-04-08T10:27:44;102759.56;;;19.21;71.58
12991;BME280;6560;57.692;11.958;2023-04-08T10:30:38;102774.09;;;19.49;72.18
12991;BME280;6560;57.692;11.958;2023-04-08T10:35:41;102765.63;;;19.55;70.81
12991;BME280;6560;57.692;11.958;2023-04-08T10:38:07;102766.03;;;20.50;70.38
12991;BME280;6560;57.692;11.958;2023-04-08T10:40:38;102719.72;;;20.00;68.88
12991;BME280;6560;57.692;11.958;2023-04-08T10:43:04;102691.94;;;19.60;70.55
12991;BME280;6560;57.692;11.958;2023-04-08T10:45:32;102766.59;;;20.07;69.90
12991;BME280;6560;57.692;11.958;2023-04-08T10:48:18;102761.06;;;20.43;69.28
12991;BME280;6560;57.692;11.958;2023-04-08T10:50:54;102684.94;;;19.62;70.10
12991;BME280;6560;57.692;11.958;2023-04-08T10:53:28;102753.53;;;20.77;69.68
12991;BME280;6560;57.692;11.958;2023-04-08T10:56:15;102757.91;;;20.11;70.66
12991;BME280;6560;57.692;11.958;2023-04-08T10:58:53;102720.16;;;20.46;70.86
12991;BME280;6560;57.692;11.958;2023-04-08T11:01:23;102730.38;;;21.33;68.54
12991;BME280;6560;57.692;11.958;2023-04-08T11:03:49;102750.94;;;20.92;69.03
12991;BME280;6560;57.692;11.958;2023-04-08T11:06:15;102663.72;;;20.71;69.18
12991;BME280;6560;57.692;11.958;2023-04-08T11:08:41;102702.50;;;21.74;68.55
12991;BME280;6560;57.692;11.958;2023-04-08T11:11:09;102738.25;;;21.30;68.79
12991;BME280;6560;57.692;11.958;2023-04-08T11:13:38;102708.81;;;21.89;67.21
12991;BME280;6560;57.692;11.958;2023-04-08T11:16:05;102742.00;;;20.65;70.05
12991;BME280;6560;57.692;11.958;2023-04-08T11:18:39;102723.59;;;21.96;68.65
12991;BME280;6560;57.692;11.958;2023-04-08T11:21:11;102732.97;;;21.74;68.19
12991;BME280;6560;57.692;11.958;2023-04-08T11:23:36;102649.06;;;20.79;69.37
12991;BME280;6560;57.692;11.958;2023-04-08T11:26:02;102736.47;;;21.44;69.73
12991;BME280;6560;57.692;11.958;2023-04-08T11:28:28;102713.47;;;21.92;68.73
12991;BME280;6560;57.692;11.958;2023-04-08T11:30:54;102729.97;;;22.12;68.00
12991;BME280;6560;57.692;11.958;2023-04-08T11:33:20;102722.63;;;21.80;67.94
12991;BME280;6560;57.692;11.958;2023-04-08T11:35:49;102720.19;;;21.98;67.96
12991;BME280;6560;57.692;11.958;2023-04-08T11:38:16;102717.66;;;22.31;66.73
12991;BME280;6560;57.692;11.958;2023-04-08T11:40:57;102715.31;;;22.37;66.98
12991;BME280;6560;57.692;11.958;2023-04-08T11:43:23;102720.38;;;21.03;68.73
12991;BME280;6560;57.692;11.958;2023-04-08T11:45:50;102602.84;;;20.42;69.69
12991;BME280;6560;57.692;11.958;2023-04-08T11:48:16;102659.53;;;21.74;69.62
12991;BME280;6560;57.692;11.958;2023-04-08T11:50:43;102713.72;;;21.67;68.74
12991;BME280;6560;57.692;11.958;2023-04-08T11:53:17;102715.78;;;21.71;68.68
12991;BME280;6560;57.692;11.958;2023-04-08T11:55:44;102712.69;;;21.79;69.87
12991;BME280;6560;57.692;11.958;2023-04-08T11:58:09;102694.19;;;22.28;68.99
12991;BME280;6560;57.692;11.958;2023-04-08T12:00:35;102548.47;;;21.72;68.33
12991;BME280;6560;57.692;11.958;2023-04-08T12:03:03;102681.25;;;22.06;69.16
12991;BME280;6560;57.692;11.958;2023-04-08T12:05:28;102503.22;;;21.79;68.28
12991;BME280;6560;57.692;11.958;2023-04-08T12:07:54;102557.81;;;21.49;67.37
12991;BME280;6560;57.692;11.958;2023-04-08T12:10:21;102726.56;;;22.60;68.10
12991;BME280;6560;57.692;11.958;2023-04-08T12:12:47;102588.75;;;21.57;67.46
12991;BME280;6560;57.692;11.958;2023-04-08T12:15:13;102641.88;;;21.92;68.72
12991;BME280;6560;57.692;11.958;2023-04-08T12:17:39;102529.69;;;22.03;67.42
12991;BME280;6560;57.692;11.958;2023-04-08T12:20:07;102731.88;;;23.69;67.20
12991;BME280;6560;57.692;11.958;2023-04-08T12:22:32;102634.13;;;23.72;65.68
12991;BME280;6560;57.692;11.958;2023-04-08T12:24:58;102695.53;;;24.84;65.03
12991;BME280;6560;57.692;11.958;2023-04-08T12:27:23;102685.72;;;24.49;63.74
12991;BME280;6560;57.692;11.958;2023-04-08T12:29:50;102680.81;;;24.95;62.39
12991;BME280;6560;57.692;11.958;2023-04-08T12:32:17;102713.72;;;23.83;62.83
12991;BME280;6560;57.692;11.958;2023-04-08T12:34:44;102652.25;;;23.58;63.79
12991;BME280;6560;57.692;11.958;2023-04-08T12:37:10;102693.78;;;24.13;62.89
12991;BME280;6560;57.692;11.958;2023-04-08T12:39:35;102681.25;;;23.80;62.66
12991;BME280;6560;57.692;11.958;2023-04-08T12:42:01;102696.06;;;24.06;63.84
12991;BME280;6560;57.692;11.958;2023-04-08T12:44:26;102635.97;;;22.59;63.90
12991;BME280;6560;57.692;11.958;2023-04-08T12:46:52;102690.38;;;23.01;65.74
12991;BME280;6560;57.692;11.958;2023-04-08T12:49:17;102710.81;;;22.52;66.44
12991;BME280;6560;57.692;11.958;2023-04-08T12:51:43;102665.44;;;22.73;66.88
12991;BME280;6560;57.692;11.958;2023-04-08T12:54:08;102686.94;;;23.20;66.19
12991;BME280;6560;57.692;11.958;2023-04-08T12:56:33;102637.00;;;23.75;65.21
12991;BME280;6560;57.692;11.958;2023-04-08T12:58:59;102622.25;;;24.20;63.93
12991;BME280;6560;57.692;11.958;2023-04-08T13:01:26;102633.63;;;22.96;64.53
12991;BME280;6560;57.692;11.958;2023-04-08T13:03:51;102697.38;;;23.30;65.44
12991;BME280;6560;57.692;11.958;2023-04-08T13:06:17;102693.06;;;23.33;64.78
12991;BME280;6560;57.692;11.958;2023-04-08T13:08:43;102582.00;;;22.87;64.19
12991;BME280;6560;57.692;11.958;2023-04-08T13:11:08;102688.72;;;23.35;65.39
12991;BME280;6560;57.692;11.958;2023-04-08T13:13:34;102674.75;;;23.76;65.00
12991;BME280;6560;57.692;11.958;2023-04-08T13:16:00;102685.19;;;24.38;64.45
12991;BME280;6560;57.692;11.958;2023-04-08T13:18:26;102679.81;;;24.20;63.69
12991;BME280;6560;57.692;11.958;2023-04-08T13:20:51;102654.00;;;23.74;63.87